createdAt,value
2023-12-01T00:01:12.525Z,97544.03
2023-12-01T00:03:39.323Z,97540.50
2023-12-01T00:06:06.473Z,97544.88
2023-12-01T00:08:33.258Z,97552.50
2023-12-01T00:10:59.957Z,97554.06
2023-12-01T00:13:26.774Z,97554.25
2023-12-01T00:15:53.479Z,97544.03
2023-12-01T00:18:20.141Z,97550.91
2023-12-01T00:20:46.838Z,97551.09
2023-12-01T00:23:13.530Z,97548.59
2023-12-01T00:25:40.216Z,97550.16
2023-12-01T00:28:06.940Z,97553.44
2023-12-01T00:30:35.357Z,97555.75
2023-12-01T00:33:02.621Z,97553.59
2023-12-01T00:35:29.486Z,97556.13
2023-12-01T00:37:56.230Z,97553.88
2023-12-01T00:40:23.389Z,97555.66
2023-12-01T00:42:50.124Z,97553.97
2023-12-01T00:45:17.086Z,97555.91
2023-12-01T00:47:44.095Z,97562.91
2023-12-01T00:50:10.899Z,97565.59
2023-12-01T00:52:37.641Z,97556.97
2023-12-01T00:55:04.609Z,97565.50
2023-12-01T00:57:31.680Z,97561.03
2023-12-01T00:59:58.388Z,97563.38
2023-12-01T01:02:25.114Z,97557.25
2023-12-01T01:04:52.049Z,97559.00
2023-12-01T01:07:18.784Z,97560.78
2023-12-01T01:09:46.391Z,97566.69
2023-12-01T01:12:13.155Z,97563.16
2023-12-01T01:14:39.934Z,97573.56
2023-12-01T01:17:06.703Z,97568.38
2023-12-01T01:19:33.468Z,97560.56
2023-12-01T01:22:00.211Z,97569.50
2023-12-01T01:24:26.986Z,97574.63
2023-12-01T01:26:53.646Z,97573.88
2023-12-01T01:29:20.381Z,97572.09
2023-12-01T01:31:47.127Z,97576.19
2023-12-01T01:34:13.815Z,97574.50
2023-12-01T01:36:40.525Z,97564.09
2023-12-01T01:39:07.315Z,97566.69
2023-12-01T01:41:33.997Z,97558.88
2023-12-01T01:44:00.745Z,97566.53
2023-12-01T01:46:27.641Z,97566.69
2023-12-01T01:48:56.438Z,97561.88
2023-12-01T01:51:23.515Z,97562.63
2023-12-01T01:53:50.761Z,97563.16
2023-12-01T01:56:18.211Z,97571.91
2023-12-01T01:58:44.947Z,97576.28
2023-12-01T02:01:11.722Z,97568.19
2023-12-01T02:03:39.256Z,97579.16
2023-12-01T02:06:07.654Z,97581.22
2023-12-01T02:08:35.154Z,97586.41
2023-12-01T02:11:02.194Z,97582.78
2023-12-01T02:13:31.753Z,97583.91
2023-12-01T02:16:01.532Z,97583.81
2023-12-01T02:18:35.059Z,97587.34
2023-12-01T02:21:02.731Z,97580.47
2023-12-01T02:23:29.407Z,97581.94
2023-12-01T02:25:56.219Z,97583.63
2023-12-01T02:28:22.981Z,97586.22
2023-12-01T02:30:54.745Z,97583.72
2023-12-01T02:33:22.181Z,97591.06
2023-12-01T02:35:53.666Z,97578.91
2023-12-01T02:38:21.234Z,97578.06
2023-12-01T02:40:52.051Z,97577.09
2023-12-01T02:43:21.217Z,97580.84
2023-12-01T02:45:48.971Z,97577.09
2023-12-01T02:48:16.464Z,97573.50
2023-12-01T02:50:43.412Z,97574.25
2023-12-01T02:53:10.471Z,97574.25
2023-12-01T02:55:37.223Z,97574.50
2023-12-01T02:58:04.188Z,97576.94
2023-12-01T03:00:31.012Z,97573.56
2023-12-01T03:02:57.722Z,97577.56
2023-12-01T03:05:24.980Z,97577.41
2023-12-01T03:07:52.298Z,97581.94
2023-12-01T03:10:19.162Z,97587.13
2023-12-01T03:12:46.394Z,97594.22
2023-12-01T03:15:15.292Z,97597.91
2023-12-01T03:17:42.237Z,97602.94
2023-12-01T03:20:12.053Z,97598.03
2023-12-01T03:22:40.369Z,97603.31
2023-12-01T03:25:14.068Z,97607.53
2023-12-01T03:27:45.856Z,97608.69
2023-12-01T03:30:17.751Z,97604.91
2023-12-01T03:32:51.571Z,97606.69
2023-12-01T03:35:26.238Z,97603.13
2023-12-01T03:37:58.049Z,97609.16
2023-12-01T03:40:26.123Z,97603.13
2023-12-01T03:42:53.389Z,97606.47
2023-12-01T03:45:20.543Z,97605.47
2023-12-01T03:47:49.024Z,97609.84
2023-12-01T03:50:16.817Z,97613.38
2023-12-01T03:52:45.926Z,97616.88
2023-12-01T03:55:13.825Z,97611.03
2023-12-01T03:57:42.133Z,97612.72
2023-12-01T04:00:20.731Z,97612.06
2023-12-01T04:02:49.523Z,97614.03
2023-12-01T04:05:21.105Z,97612.06
2023-12-01T04:07:55.492Z,97608.31
2023-12-01T04:10:25.016Z,97610.94
2023-12-01T04:12:51.957Z,97602.41
2023-12-01T04:15:26.228Z,97608.53
2023-12-01T04:17:54.094Z,97610.38
2023-12-01T04:20:27.506Z,97609.91
2023-12-01T04:22:58.282Z,97612.41
2023-12-01T04:25:25.298Z,97613.44
2023-12-01T04:27:53.284Z,97611.78
2023-12-01T04:30:22.191Z,97608.34
2023-12-01T04:32:55.686Z,97625.50
2023-12-01T04:35:26.220Z,97629.88
2023-12-01T04:37:53.055Z,97629.88
2023-12-01T04:40:19.888Z,97632.31
2023-12-01T04:42:47.076Z,97630.91
2023-12-01T04:45:16.531Z,97629.72
2023-12-01T04:47:45.195Z,97635.91
2023-12-01T04:50:14.723Z,97643.16
2023-12-01T04:52:45.948Z,97642.16
2023-12-01T04:55:17.503Z,97649.03
2023-12-01T04:57:45.590Z,97648.38
2023-12-01T05:00:21.148Z,97653.41
2023-12-01T05:02:52.700Z,97655.34
2023-12-01T05:05:26.389Z,97661.28
2023-12-01T05:07:58.794Z,97661.09
2023-12-01T05:10:30.532Z,97657.41
2023-12-01T05:12:59.695Z,97661.78
2023-12-01T05:15:28.334Z,97663.63
2023-12-01T05:17:56.413Z,97658.34
2023-12-01T05:20:28.743Z,97657.09
2023-12-01T05:23:00.320Z,97644.19
2023-12-01T05:25:28.810Z,97647.91
2023-12-01T05:27:57.461Z,97644.19
2023-12-01T05:30:34.478Z,97647.72
2023-12-01T05:33:01.966Z,97647.72
2023-12-01T05:35:29.480Z,97645.13
2023-12-01T05:37:58.050Z,97650.13
2023-12-01T05:40:33.598Z,97650.13
2023-12-01T05:43:00.468Z,97653.28
2023-12-01T05:45:29.051Z,97659.22
2023-12-01T05:47:57.304Z,97660.97
2023-12-01T05:50:24.735Z,97660.81
2023-12-01T05:52:53.331Z,97665.38
2023-12-01T05:55:39.048Z,97663.84
2023-12-01T05:58:11.581Z,97670.91
2023-12-01T06:00:38.916Z,97675.94
2023-12-01T06:03:11.098Z,97684.50
2023-12-01T06:05:39.533Z,97678.81
2023-12-01T06:08:10.050Z,97679.47
2023-12-01T06:10:37.217Z,97677.63
2023-12-01T06:13:05.023Z,97679.09
2023-12-01T06:15:32.168Z,97673.53
2023-12-01T06:18:00.340Z,97692.50
2023-12-01T06:20:27.614Z,97689.00
2023-12-01T06:22:59.395Z,97687.47
2023-12-01T06:25:30.102Z,97679.78
2023-12-01T06:28:00.909Z,97686.75
2023-12-01T06:30:29.137Z,97688.50
2023-12-01T06:32:57.120Z,97696.22
2023-12-01T06:35:24.037Z,97703.44
2023-12-01T06:37:51.087Z,97704.56
2023-12-01T06:40:20.024Z,97705.56
2023-12-01T06:42:50.046Z,97712.78
2023-12-01T06:45:21.382Z,97720.09
2023-12-01T06:47:49.972Z,97718.41
2023-12-01T06:50:18.560Z,97733.88
2023-12-01T06:52:46.960Z,97728.66
2023-12-01T06:55:13.833Z,97745.25
2023-12-01T06:57:45.509Z,97744.63
2023-12-01T07:00:29.290Z,97758.94
2023-12-01T07:03:11.132Z,97758.88
2023-12-01T07:05:40.683Z,97764.25
2023-12-01T07:08:15.974Z,97768.69
2023-12-01T07:10:43.768Z,97777.59
2023-12-01T07:13:10.997Z,97773.13
2023-12-01T07:15:39.098Z,97781.84
2023-12-01T07:18:06.925Z,97781.97
2023-12-01T07:20:34.798Z,97786.31
2023-12-01T07:23:04.183Z,97785.56
2023-12-01T07:25:32.714Z,97779.44
2023-12-01T07:28:01.336Z,97790.31
2023-12-01T07:30:31.267Z,97787.66
2023-12-01T07:33:00.522Z,97790.44
2023-12-01T07:35:27.385Z,97789.59
2023-12-01T07:37:54.960Z,97795.63
2023-12-01T07:40:23.387Z,97792.34
2023-12-01T07:42:52.020Z,97807.00
2023-12-01T07:45:19.121Z,97803.31
2023-12-01T07:47:49.874Z,97806.59
2023-12-01T07:50:17.679Z,97808.84
2023-12-01T07:52:45.715Z,97803.06
2023-12-01T07:55:12.999Z,97816.38
2023-12-01T07:57:40.435Z,97814.56
2023-12-01T08:00:16.134Z,97813.72
2023-12-01T08:02:46.042Z,97817.75
2023-12-01T08:05:16.874Z,97826.63
2023-12-01T08:07:53.622Z,97823.09
2023-12-01T08:10:22.437Z,97827.28
2023-12-01T08:12:50.812Z,97830.16
2023-12-01T08:15:18.053Z,97828.13
2023-12-01T08:17:46.255Z,97820.41
2023-12-01T08:20:13.916Z,97826.44
2023-12-01T08:22:41.074Z,97823.94
2023-12-01T08:25:09.859Z,97830.97
2023-12-01T08:27:37.523Z,97824.44
2023-12-01T08:30:04.932Z,97816.56
2023-12-01T08:32:31.988Z,97823.34
2023-12-01T08:34:58.995Z,97828.28
2023-12-01T08:37:25.796Z,97831.81
2023-12-01T08:39:52.756Z,97839.63
2023-12-01T08:42:20.274Z,97836.84
2023-12-01T08:44:47.117Z,97831.66
2023-12-01T08:47:15.265Z,97829.38
2023-12-01T08:49:42.054Z,97831.66
2023-12-01T08:52:08.907Z,97833.34
2023-12-01T08:54:36.139Z,97834.09
2023-12-01T08:57:03.006Z,97839.38
2023-12-01T08:59:29.705Z,97835.16
2023-12-01T09:01:57.186Z,97838.84
2023-12-01T09:04:24.022Z,97844.19
2023-12-01T09:06:50.813Z,97853.09
2023-12-01T09:09:18.663Z,97846.22
2023-12-01T09:11:45.517Z,97855.09
2023-12-01T09:14:12.257Z,97854.91
2023-12-01T09:16:38.952Z,97864.47
2023-12-01T09:19:07.609Z,97869.00
2023-12-01T09:21:34.985Z,97878.41
2023-12-01T09:24:01.855Z,97883.09
2023-12-01T09:26:30.013Z,97883.09
2023-12-01T09:28:56.812Z,97876.06
2023-12-01T09:31:23.955Z,97890.91
2023-12-01T09:33:51.276Z,97878.09
2023-12-01T09:36:18.519Z,97876.31
2023-12-01T09:38:45.866Z,97877.63
2023-12-01T09:41:12.590Z,97874.63
2023-12-01T09:43:40.116Z,97878.81
2023-12-01T09:46:08.392Z,97868.34
2023-12-01T09:48:38.294Z,97868.03
2023-12-01T09:51:05.444Z,97880.94
2023-12-01T09:53:32.451Z,97880.78
2023-12-01T09:56:00.573Z,97884.47
2023-12-01T09:58:28.491Z,97887.50
2023-12-01T10:00:55.138Z,97887.94
2023-12-01T10:03:21.914Z,97888.94
2023-12-01T10:05:49.127Z,97888.72
2023-12-01T10:08:18.909Z,97889.38
2023-12-01T10:10:46.302Z,97881.66
2023-12-01T10:13:14.846Z,97890.53
2023-12-01T10:15:42.228Z,97888.28
2023-12-01T10:18:26.450Z,97896.78
2023-12-01T10:21:05.105Z,97891.41
2023-12-01T10:23:34.308Z,97897.25
2023-12-01T10:26:05.452Z,97897.69
2023-12-01T10:28:41.163Z,97890.91
2023-12-01T10:31:08.989Z,97882.69
2023-12-01T10:33:37.056Z,97881.84
2023-12-01T10:36:04.932Z,97881.81
2023-12-01T10:38:32.371Z,97880.81
2023-12-01T10:41:00.699Z,97877.88
2023-12-01T10:43:31.426Z,97875.97
2023-12-01T10:46:04.125Z,97884.34
2023-12-01T10:48:33.672Z,97867.38
2023-12-01T10:51:04.837Z,97874.19
2023-12-01T10:53:31.931Z,97867.63
2023-12-01T10:56:04.085Z,97878.03
2023-12-01T10:58:36.117Z,97873.41
2023-12-01T11:01:03.914Z,97875.03
2023-12-01T11:03:33.082Z,97866.88
2023-12-01T11:06:05.692Z,97864.97
2023-12-01T11:08:53.946Z,97875.72
2023-12-01T11:11:55.363Z,97874.44
2023-12-01T11:14:26.854Z,97875.47
2023-12-01T11:16:54.839Z,97873.94
2023-12-01T11:19:24.667Z,97887.03
2023-12-01T11:21:57.982Z,97882.34
2023-12-01T11:24:36.312Z,97873.19
2023-12-01T11:27:07.614Z,97873.47
2023-12-01T11:29:40.271Z,97875.19
2023-12-01T11:32:07.389Z,97873.13
2023-12-01T11:34:34.488Z,97865.22
2023-12-01T11:37:04.235Z,97855.97
2023-12-01T11:39:31.362Z,97856.81
2023-12-01T11:42:05.535Z,97863.06
2023-12-01T11:44:38.924Z,97844.09
2023-12-01T11:47:08.942Z,97844.50
2023-12-01T11:49:46.555Z,97843.41
2023-12-01T11:52:21.510Z,97863.38
2023-12-01T11:54:50.605Z,97862.38
2023-12-01T11:57:19.821Z,97857.31
2023-12-01T11:59:47.368Z,97855.81
2023-12-01T12:02:15.867Z,97858.44
2023-12-01T12:04:48.370Z,97853.31
2023-12-01T12:07:17.330Z,97862.22
2023-12-01T12:09:46.239Z,97865.88
2023-12-01T12:12:15.232Z,97867.75
2023-12-01T12:14:43.045Z,97864.69
2023-12-01T12:17:10.338Z,97861.94
2023-12-01T12:19:50.401Z,97864.88
2023-12-01T12:22:21.627Z,97863.78
2023-12-01T12:24:49.425Z,97868.53
2023-12-01T12:27:16.676Z,97863.28
2023-12-01T12:29:43.697Z,97857.75
2023-12-01T12:32:10.608Z,97857.91
2023-12-01T12:34:37.759Z,97858.81
2023-12-01T12:37:04.780Z,97873.22
2023-12-01T12:39:33.174Z,97864.50
2023-12-01T12:42:01.276Z,97876.41
2023-12-01T12:44:32.713Z,97890.97
2023-12-01T12:47:06.897Z,97895.25
2023-12-01T12:49:35.610Z,97877.38
2023-12-01T12:52:04.508Z,97877.25
2023-12-01T12:54:32.220Z,97870.19
2023-12-01T12:56:59.238Z,97872.63
2023-12-01T12:59:25.963Z,97855.28
2023-12-01T13:01:52.941Z,97864.00
2023-12-01T13:04:21.246Z,97865.94
2023-12-01T13:06:49.620Z,97857.97
2023-12-01T13:09:18.039Z,97873.78
2023-12-01T13:11:45.559Z,97883.94
2023-12-01T13:14:14.527Z,97886.53
2023-12-01T13:16:52.428Z,97901.28
2023-12-01T13:19:23.713Z,97909.94
2023-12-01T13:21:54.313Z,97905.72
2023-12-01T13:24:23.219Z,97896.34
2023-12-01T13:26:50.149Z,97891.16
2023-12-01T13:29:17.044Z,97895.56
2023-12-01T13:31:43.920Z,97898.34
2023-12-01T13:34:10.666Z,97893.91
2023-12-01T13:36:37.358Z,97904.63
2023-12-01T13:39:04.510Z,97911.75
2023-12-01T13:41:31.962Z,97914.41
2023-12-01T13:43:59.022Z,97906.31
2023-12-01T13:46:25.767Z,97902.03
2023-12-01T13:48:52.778Z,97899.28
2023-12-01T13:51:20.349Z,97899.13
2023-12-01T13:53:47.222Z,97888.06
2023-12-01T13:56:14.055Z,97891.41
2023-12-01T13:58:44.669Z,97890.25
2023-12-01T14:01:13.590Z,97884.31
2023-12-01T14:03:40.735Z,97894.53
2023-12-01T14:06:08.278Z,97900.28
2023-12-01T14:08:36.025Z,97894.25
2023-12-01T14:11:03.835Z,97895.91
2023-12-01T14:13:30.631Z,97896.06
2023-12-01T14:15:57.322Z,97897.91
2023-12-01T14:18:24.229Z,97898.06
2023-12-01T14:20:51.275Z,97896.22
2023-12-01T14:23:18.116Z,97895.47
2023-12-01T14:25:44.733Z,97908.31
2023-12-01T14:28:11.447Z,97908.38
2023-12-01T14:30:38.182Z,97914.78
2023-12-01T14:33:05.001Z,97902.34
2023-12-01T14:35:31.823Z,97923.19
2023-12-01T14:37:59.648Z,97931.06
2023-12-01T14:40:26.379Z,97936.56
2023-12-01T14:42:52.995Z,97932.06
2023-12-01T14:45:19.790Z,97935.19
2023-12-01T14:47:46.670Z,97942.28
2023-12-01T14:50:13.411Z,97939.66
2023-12-01T14:52:40.275Z,97932.91
2023-12-01T14:55:07.206Z,97943.41
2023-12-01T14:57:33.865Z,97949.63
2023-12-01T15:00:00.667Z,97954.88
2023-12-01T15:02:27.580Z,97959.22
2023-12-01T15:04:54.337Z,97966.78
2023-12-01T15:07:21.006Z,97967.69
2023-12-01T15:09:47.607Z,97964.19
2023-12-01T15:12:14.325Z,97969.44
2023-12-01T15:14:40.978Z,97972.50
2023-12-01T15:17:07.635Z,97959.69
2023-12-01T15:19:34.324Z,97951.06
2023-12-01T15:22:02.425Z,97958.38
2023-12-01T15:24:29.562Z,97953.31
2023-12-01T15:26:59.052Z,97947.59
2023-12-01T15:29:25.728Z,97958.50
2023-12-01T15:31:52.498Z,97951.66
2023-12-01T15:34:19.370Z,97944.91
2023-12-01T15:36:46.144Z,97949.44
2023-12-01T15:39:13.002Z,97969.78
2023-12-01T15:41:40.267Z,97975.13
2023-12-01T15:44:08.259Z,97977.84
2023-12-01T15:46:35.241Z,97984.88
2023-12-01T15:49:02.131Z,97987.97
2023-12-01T15:51:28.900Z,98003.63
2023-12-01T15:53:56.237Z,97991.28
2023-12-01T15:56:23.099Z,97996.53
2023-12-01T15:58:49.850Z,97998.28
2023-12-01T16:01:16.835Z,97984.69
2023-12-01T16:03:44.586Z,97984.97
2023-12-01T16:06:11.673Z,97994.16
2023-12-01T16:08:38.954Z,97987.06
2023-12-01T16:11:07.744Z,97996.47
2023-12-01T16:13:34.827Z,97997.19
2023-12-01T16:16:01.657Z,97994.63
2023-12-01T16:18:28.817Z,97989.88
2023-12-01T16:20:55.935Z,98005.56
2023-12-01T16:23:22.743Z,97999.63
2023-12-01T16:25:50.700Z,97990.16
2023-12-01T16:28:17.795Z,97990.66
2023-12-01T16:30:44.832Z,97977.81
2023-12-01T16:33:11.732Z,97969.13
2023-12-01T16:35:38.564Z,97956.38
2023-12-01T16:38:06.659Z,97964.16
2023-12-01T16:40:33.557Z,97970.66
2023-12-01T16:43:00.394Z,97981.59
2023-12-01T16:45:27.190Z,97966.81
2023-12-01T16:47:54.050Z,97980.63
2023-12-01T16:50:20.845Z,97965.91
2023-12-01T16:52:47.615Z,97982.16
2023-12-01T16:55:16.283Z,97969.25
2023-12-01T16:57:43.336Z,97963.22
2023-12-01T17:00:10.861Z,97949.34
2023-12-01T17:02:39.514Z,97955.16
2023-12-01T17:05:06.428Z,97959.31
2023-12-01T17:07:33.144Z,97970.94
2023-12-01T17:09:59.980Z,97973.53
2023-12-01T17:12:27.012Z,97976.28
2023-12-01T17:14:53.706Z,97979.63
2023-12-01T17:17:20.437Z,97979.78
2023-12-01T17:19:47.215Z,97976.56
2023-12-01T17:22:14.401Z,97986.66
2023-12-01T17:24:43.115Z,97983.44
2023-12-01T17:27:13.489Z,98002.41
2023-12-01T17:29:43.587Z,98013.63
2023-12-01T17:32:11.007Z,98009.22
2023-12-01T17:34:38.225Z,98005.72
2023-12-01T17:37:05.423Z,98007.41
2023-12-01T17:39:32.236Z,98002.13
2023-12-01T17:41:58.999Z,98006.56
2023-12-01T17:44:26.328Z,97994.50
2023-12-01T17:46:53.165Z,97990.44
2023-12-01T17:49:19.928Z,97996.41
2023-12-01T17:51:46.883Z,97978.38
2023-12-01T17:54:15.176Z,97966.38
2023-12-01T17:56:41.982Z,97963.72
2023-12-01T17:59:08.960Z,97978.22
2023-12-01T18:01:36.487Z,97982.47
2023-12-01T18:04:04.375Z,97976.13
2023-12-01T18:06:31.646Z,97988.97
2023-12-01T18:08:59.186Z,97997.91
2023-12-01T18:11:26.036Z,98001.19
2023-12-01T18:13:52.695Z,98004.50
2023-12-01T18:16:21.668Z,97975.66
2023-12-01T18:18:48.732Z,97965.41
2023-12-01T18:21:15.565Z,97965.47
2023-12-01T18:23:42.372Z,97957.13
2023-12-01T18:26:09.021Z,97964.25
2023-12-01T18:28:35.680Z,97972.03
2023-12-01T18:31:02.427Z,97971.44
2023-12-01T18:33:29.373Z,97960.19
2023-12-01T18:35:56.197Z,97967.97
2023-12-01T18:38:22.965Z,97978.38
2023-12-01T18:40:49.646Z,97968.81
2023-12-01T18:43:16.433Z,97977.94
2023-12-01T18:45:45.877Z,97961.53
2023-12-01T18:48:12.705Z,97976.53
2023-12-01T18:50:39.539Z,97991.78
2023-12-01T18:53:06.234Z,97989.47
2023-12-01T18:55:33.168Z,98001.59
2023-12-01T18:57:59.868Z,98006.75
2023-12-01T19:00:29.766Z,97996.25
2023-12-01T19:02:56.647Z,97993.94
2023-12-01T19:05:23.901Z,98001.84
2023-12-01T19:07:51.063Z,97996.41
2023-12-01T19:10:18.088Z,97995.66
2023-12-01T19:12:44.769Z,98000.00
2023-12-01T19:15:11.776Z,97995.66
2023-12-01T19:17:38.655Z,97999.09
2023-12-01T19:20:05.923Z,98013.75
2023-12-01T19:22:33.263Z,98015.44
2023-12-01T19:25:04.098Z,98024.91
2023-12-01T19:27:30.853Z,98030.19
2023-12-01T19:29:57.626Z,98030.09
2023-12-01T19:32:24.371Z,98041.34
2023-12-01T19:34:51.094Z,98043.78
2023-12-01T19:37:17.849Z,98041.09
2023-12-01T19:39:44.588Z,98046.38
2023-12-01T19:42:12.000Z,98038.59
2023-12-01T19:44:39.079Z,98033.78
2023-12-01T19:47:06.046Z,98031.09
2023-12-01T19:49:33.030Z,98026.66
2023-12-01T19:51:59.729Z,98024.13
2023-12-01T19:54:26.461Z,98032.72
2023-12-01T19:56:53.264Z,98039.88
2023-12-01T19:59:20.483Z,98051.25
2023-12-01T20:01:48.482Z,98045.94
2023-12-01T20:04:15.493Z,98052.09
2023-12-01T20:06:42.261Z,98044.41
2023-12-01T20:09:09.436Z,98043.41
2023-12-01T20:11:36.159Z,98042.56
2023-12-01T20:14:03.001Z,98042.13
2023-12-01T20:16:29.715Z,98031.78
2023-12-01T20:18:57.207Z,98039.47
2023-12-01T20:21:24.548Z,98045.25
2023-12-01T20:23:53.131Z,98044.31
2023-12-01T20:26:20.102Z,98044.50
2023-12-01T20:28:46.773Z,98039.47
2023-12-01T20:31:13.432Z,98054.19
2023-12-01T20:33:40.201Z,98055.59
2023-12-01T20:36:07.477Z,98058.91
2023-12-01T20:38:36.051Z,98055.59
2023-12-01T20:41:06.519Z,98050.44
2023-12-01T20:43:33.296Z,98054.69
2023-12-01T20:46:00.079Z,98045.88
2023-12-01T20:48:27.099Z,98041.03
2023-12-01T20:50:54.055Z,98036.53
2023-12-01T20:53:20.800Z,98037.84
2023-12-01T20:55:47.514Z,98028.44
2023-12-01T20:58:14.176Z,98032.72
2023-12-01T21:00:40.870Z,98029.19
2023-12-01T21:03:07.676Z,98018.88
2023-12-01T21:05:34.466Z,98024.91
2023-12-01T21:08:01.185Z,98030.94
2023-12-01T21:10:27.928Z,98049.00
2023-12-01T21:12:54.645Z,98044.66
2023-12-01T21:15:21.394Z,98054.88
2023-12-01T21:17:48.164Z,98054.03
2023-12-01T21:20:15.112Z,98057.53
2023-12-01T21:22:41.774Z,98057.47
2023-12-01T21:25:10.116Z,98054.94
2023-12-01T21:27:37.121Z,98051.50
2023-12-01T21:30:04.504Z,98042.72
2023-12-01T21:32:33.768Z,98048.91
2023-12-01T21:35:00.391Z,98049.13
2023-12-01T21:37:27.006Z,98056.88
2023-12-01T21:39:53.719Z,98059.47
2023-12-01T21:42:20.471Z,98061.16
2023-12-01T21:44:47.189Z,98066.44
2023-12-01T21:47:13.789Z,98063.81
2023-12-01T21:49:40.834Z,98061.16
2023-12-01T21:52:07.645Z,98074.91
2023-12-01T21:54:34.371Z,98063.56
2023-12-01T21:57:01.131Z,98053.34
2023-12-01T21:59:27.802Z,98058.38
2023-12-01T22:01:54.524Z,98059.63
2023-12-01T22:04:21.186Z,98056.09
2023-12-01T22:06:50.820Z,98058.56
2023-12-01T22:09:18.377Z,98063.88
2023-12-01T22:11:45.068Z,98061.41
2023-12-01T22:14:12.421Z,98063.22
2023-12-01T22:16:40.130Z,98069.97
2023-12-01T22:21:37.701Z,98082.50
2023-12-01T22:24:05.018Z,98075.91
2023-12-01T22:26:31.736Z,98068.25
2023-12-01T22:28:58.424Z,98067.34
2023-12-01T22:31:25.081Z,98087.06
2023-12-01T22:33:51.739Z,98081.09
2023-12-01T22:36:18.463Z,98088.91
2023-12-01T22:38:45.067Z,98080.94
2023-12-01T22:41:11.724Z,98083.53
2023-12-01T22:43:39.418Z,98072.97
2023-12-01T22:46:07.018Z,98074.81
2023-12-01T22:48:33.823Z,98076.41
2023-12-01T22:51:00.668Z,98069.78
2023-12-01T22:53:27.420Z,98072.28
2023-12-01T22:55:54.101Z,98072.97
2023-12-01T22:58:20.752Z,98066.00
2023-12-01T23:00:47.381Z,98066.06
2023-12-01T23:03:14.277Z,98068.47
2023-12-01T23:05:41.120Z,98070.13
2023-12-01T23:08:07.785Z,98062.38
2023-12-01T23:10:34.504Z,98065.69
2023-12-01T23:13:01.176Z,98071.06
2023-12-01T23:15:28.383Z,98067.50
2023-12-01T23:17:58.337Z,98066.91
2023-12-01T23:20:28.034Z,98056.44
2023-12-01T23:22:55.423Z,98059.19
2023-12-01T23:25:22.199Z,98060.97
2023-12-01T23:27:49.098Z,98062.88
2023-12-01T23:30:16.276Z,98066.16
2023-12-01T23:32:43.265Z,98063.63
2023-12-01T23:35:10.170Z,98051.56
2023-12-01T23:37:37.278Z,98050.66
2023-12-01T23:40:04.686Z,98060.88
2023-12-01T23:42:31.522Z,98067.03
2023-12-01T23:44:59.098Z,98057.53
2023-12-01T23:47:25.883Z,98074.66
2023-12-01T23:49:52.610Z,98068.41
2023-12-01T23:52:19.693Z,98048.47
2023-12-01T23:54:46.321Z,98046.91
2023-12-01T23:57:13.219Z,98047.94
2023-12-01T23:59:40.277Z,98048.78
